sensor_id;sensor_type;location;lat;lon;timestamp;P1;durP1;ratioP1;P2;durP2;ratioP2
3941;SDS011;1985;48.592;8.850;2023-04-19T00:00:32;16.70;;;6.90;;
3941;SDS011;1985;48.592;8.850;2023-04-19T00:02:59;17.42;;;7.78;;
3941;SDS011;1985;48.592;8.850;2023-04-19T00:05:26;17.27;;;7.30;;
3941;SDS011;1985;48.592;8.850;2023-04-19T00:07:52;16.70;;;7.25;;
3941;SDS011;1985;48.592;8.850;2023-04-19T00:10:18;17.98;;;7.38;;
3941;SDS011;1985;48.592;8.850;2023-04-19T00:12:44;14.98;;;6.97;;
3941;SDS011;1985;48.592;8.850;2023-04-19T00:15:09;17.27;;;7.03;;
3941;SDS011;1985;48.592;8.850;2023-04-19T00:17:35;16.50;;;7.05;;
3941;SDS011;1985;48.592;8.850;2023-04-19T00:20:01;16.73;;;6.30;;
3941;SDS011;1985;48.592;8.850;2023-04-19T00:22:27;16.20;;;7.05;;
3941;SDS011;1985;48.592;8.850;2023-04-19T00:24:53;16.77;;;7.18;;
3941;SDS011;1985;48.592;8.850;2023-04-19T00:27:19;16.67;;;7.65;;
3941;SDS011;1985;48.592;8.850;2023-04-19T00:29:45;17.33;;;7.80;;
3941;SDS011;1985;48.592;8.850;2023-04-19T00:32:10;15.80;;;6.70;;
3941;SDS011;1985;48.592;8.850;2023-04-19T00:34:36;16.70;;;7.27;;
3941;SDS011;1985;48.592;8.850;2023-04-19T00:37:02;16.60;;;7.10;;
3941;SDS011;1985;48.592;8.850;2023-04-19T00:39:30;16.23;;;6.95;;
3941;SDS011;1985;48.592;8.850;2023-04-19T00:41:56;15.33;;;7.30;;
3941;SDS011;1985;48.592;8.850;2023-04-19T00:44:22;17.02;;;7.32;;
3941;SDS011;1985;48.592;8.850;2023-04-19T00:46:48;18.70;;;7.97;;
3941;SDS011;1985;48.592;8.850;2023-04-19T00:49:15;16.45;;;7.43;;
3941;SDS011;1985;48.592;8.850;2023-04-19T00:51:41;17.27;;;8.02;;
3941;SDS011;1985;48.592;8.850;2023-04-19T00:54:07;17.23;;;7.60;;
3941;SDS011;1985;48.592;8.850;2023-04-19T00:56:33;15.15;;;6.28;;
3941;SDS011;1985;48.592;8.850;2023-04-19T00:59:00;18.35;;;7.57;;
3941;SDS011;1985;48.592;8.850;2023-04-19T01:01:26;17.93;;;7.97;;
3941;SDS011;1985;48.592;8.850;2023-04-19T01:03:52;17.48;;;7.10;;
3941;SDS011;1985;48.592;8.850;2023-04-19T01:06:18;16.92;;;8.07;;
3941;SDS011;1985;48.592;8.850;2023-04-19T01:08:44;16.80;;;7.70;;
3941;SDS011;1985;48.592;8.850;2023-04-19T01:11:10;15.40;;;6.53;;
3941;SDS011;1985;48.592;8.850;2023-04-19T01:13:36;18.08;;;8.30;;
3941;SDS011;1985;48.592;8.850;2023-04-19T01:16:01;19.47;;;8.40;;
3941;SDS011;1985;48.592;8.850;2023-04-19T01:18:27;19.65;;;8.60;;
3941;SDS011;1985;48.592;8.850;2023-04-19T01:20:57;19.08;;;8.00;;
3941;SDS011;1985;48.592;8.850;2023-04-19T01:23:23;19.55;;;8.43;;
3941;SDS011;1985;48.592;8.850;2023-04-19T01:25:48;17.40;;;7.87;;
3941;SDS011;1985;48.592;8.850;2023-04-19T01:28:14;16.98;;;7.38;;
3941;SDS011;1985;48.592;8.850;2023-04-19T01:30:40;17.43;;;7.43;;
3941;SDS011;1985;48.592;8.850;2023-04-19T01:33:05;19.75;;;8.60;;
3941;SDS011;1985;48.592;8.850;2023-04-19T01:35:31;18.13;;;8.30;;
3941;SDS011;1985;48.592;8.850;2023-04-19T01:37:57;18.80;;;7.93;;
3941;SDS011;1985;48.592;8.850;2023-04-19T01:40:23;17.30;;;7.30;;
3941;SDS011;1985;48.592;8.850;2023-04-19T01:42:49;20.08;;;8.18;;
3941;SDS011;1985;48.592;8.850;2023-04-19T01:45:15;18.92;;;8.88;;
3941;SDS011;1985;48.592;8.850;2023-04-19T01:47:41;16.00;;;7.78;;
3941;SDS011;1985;48.592;8.850;2023-04-19T01:50:07;18.60;;;8.57;;
3941;SDS011;1985;48.592;8.850;2023-04-19T01:52:33;18.52;;;8.68;;
3941;SDS011;1985;48.592;8.850;2023-04-19T01:54:59;18.33;;;7.82;;
3941;SDS011;1985;48.592;8.850;2023-04-19T01:57:24;18.23;;;8.77;;
3941;SDS011;1985;48.592;8.850;2023-04-19T01:59:52;17.70;;;8.10;;
3941;SDS011;1985;48.592;8.850;2023-04-19T02:02:18;18.55;;;8.65;;
3941;SDS011;1985;48.592;8.850;2023-04-19T02:04:44;25.07;;;9.60;;
3941;SDS011;1985;48.592;8.850;2023-04-19T02:07:09;17.17;;;7.75;;
3941;SDS011;1985;48.592;8.850;2023-04-19T02:09:35;20.15;;;8.27;;
3941;SDS011;1985;48.592;8.850;2023-04-19T02:12:02;18.65;;;8.88;;
3941;SDS011;1985;48.592;8.850;2023-04-19T02:14:28;17.83;;;8.10;;
3941;SDS011;1985;48.592;8.850;2023-04-19T02:16:54;18.10;;;8.40;;
3941;SDS011;1985;48.592;8.850;2023-04-19T02:19:20;19.58;;;8.50;;
3941;SDS011;1985;48.592;8.850;2023-04-19T02:21:46;17.03;;;7.60;;
3941;SDS011;1985;48.592;8.850;2023-04-19T02:24:11;18.10;;;8.55;;
3941;SDS011;1985;48.592;8.850;2023-04-19T02:26:37;19.67;;;8.00;;
3941;SDS011;1985;48.592;8.850;2023-04-19T02:29:03;18.87;;;8.40;;
3941;SDS011;1985;48.592;8.850;2023-04-19T02:31:29;17.80;;;8.37;;
3941;SDS011;1985;48.592;8.850;2023-04-19T02:33:55;20.35;;;8.50;;
3941;SDS011;1985;48.592;8.850;2023-04-19T02:36:20;18.90;;;8.30;;
3941;SDS011;1985;48.592;8.850;2023-04-19T02:38:46;17.45;;;8.18;;
3941;SDS011;1985;48.592;8.850;2023-04-19T02:41:12;19.53;;;8.00;;
3941;SDS011;1985;48.592;8.850;2023-04-19T02:43:37;17.95;;;8.50;;
3941;SDS011;1985;48.592;8.850;2023-04-19T02:46:03;17.90;;;8.10;;
3941;SDS011;1985;48.592;8.850;2023-04-19T02:48:28;20.77;;;8.30;;
3941;SDS011;1985;48.592;8.850;2023-04-19T02:50:54;18.77;;;8.67;;
3941;SDS011;1985;48.592;8.850;2023-04-19T02:53:20;17.90;;;8.10;;
3941;SDS011;1985;48.592;8.850;2023-04-19T02:55:45;19.53;;;8.57;;
3941;SDS011;1985;48.592;8.850;2023-04-19T02:58:11;17.80;;;8.25;;
3941;SDS011;1985;48.592;8.850;2023-04-19T03:00:37;22.15;;;9.30;;
3941;SDS011;1985;48.592;8.850;2023-04-19T03:03:03;20.90;;;9.10;;
3941;SDS011;1985;48.592;8.850;2023-04-19T03:05:29;20.77;;;9.52;;
3941;SDS011;1985;48.592;8.850;2023-04-19T03:07:54;20.80;;;8.80;;
3941;SDS011;1985;48.592;8.850;2023-04-19T03:10:20;18.70;;;9.23;;
3941;SDS011;1985;48.592;8.850;2023-04-19T03:12:45;21.63;;;8.60;;
3941;SDS011;1985;48.592;8.850;2023-04-19T03:15:11;18.48;;;8.20;;
3941;SDS011;1985;48.592;8.850;2023-04-19T03:17:37;20.73;;;8.97;;
3941;SDS011;1985;48.592;8.850;2023-04-19T03:20:02;20.25;;;9.13;;
3941;SDS011;1985;48.592;8.850;2023-04-19T03:22:33;19.05;;;8.90;;
3941;SDS011;1985;48.592;8.850;2023-04-19T03:24:59;21.60;;;9.30;;
3941;SDS011;1985;48.592;8.850;2023-04-19T03:27:24;20.73;;;9.50;;
3941;SDS011;1985;48.592;8.850;2023-04-19T03:29:50;21.33;;;10.00;;
3941;SDS011;1985;48.592;8.850;2023-04-19T03:32:16;20.85;;;9.82;;
3941;SDS011;1985;48.592;8.850;2023-04-19T03:34:42;22.60;;;10.67;;
3941;SDS011;1985;48.592;8.850;2023-04-19T03:37:08;21.85;;;9.57;;
3941;SDS011;1985;48.592;8.850;2023-04-19T03:39:33;23.60;;;10.20;;
3941;SDS011;1985;48.592;8.850;2023-04-19T03:41:59;22.38;;;9.93;;
3941;SDS011;1985;48.592;8.850;2023-04-19T03:44:25;22.23;;;10.60;;
3941;SDS011;1985;48.592;8.850;2023-04-19T03:46:51;21.40;;;9.90;;
3941;SDS011;1985;48.592;8.850;2023-04-19T03:49:17;20.92;;;9.70;;
3941;SDS011;1985;48.592;8.850;2023-04-19T03:51:42;22.20;;;9.75;;
3941;SDS011;1985;48.592;8.850;2023-04-19T03:54:08;21.87;;;10.30;;
3941;SDS011;1985;48.592;8.850;2023-04-19T03:56:34;27.00;;;10.60;;
3941;SDS011;1985;48.592;8.850;2023-04-19T03:58:59;21.47;;;9.93;;
3941;SDS011;1985;48.592;8.850;2023-04-19T04:01:25;24.83;;;10.30;;
3941;SDS011;1985;48.592;8.850;2023-04-19T04:03:51;23.60;;;10.23;;
3941;SDS011;1985;48.592;8.850;2023-04-19T04:06:17;24.30;;;10.03;;
3941;SDS011;1985;48.592;8.850;2023-04-19T04:08:42;25.30;;;11.07;;
3941;SDS011;1985;48.592;8.850;2023-04-19T04:11:08;21.63;;;10.10;;
3941;SDS011;1985;48.592;8.850;2023-04-19T04:13:34;21.52;;;9.95;;
3941;SDS011;1985;48.592;8.850;2023-04-19T04:15:59;21.93;;;10.53;;
3941;SDS011;1985;48.592;8.850;2023-04-19T04:18:25;24.23;;;11.40;;
3941;SDS011;1985;48.592;8.850;2023-04-19T04:20:52;22.08;;;10.98;;
3941;SDS011;1985;48.592;8.850;2023-04-19T04:23:18;27.03;;;11.27;;
3941;SDS011;1985;48.592;8.850;2023-04-19T04:25:45;24.90;;;11.40;;
3941;SDS011;1985;48.592;8.850;2023-04-19T04:28:11;23.63;;;11.00;;
3941;SDS011;1985;48.592;8.850;2023-04-19T04:30:37;23.30;;;11.38;;
3941;SDS011;1985;48.592;8.850;2023-04-19T04:33:04;24.70;;;10.82;;
3941;SDS011;1985;48.592;8.850;2023-04-19T04:35:30;25.57;;;11.40;;
3941;SDS011;1985;48.592;8.850;2023-04-19T04:37:55;24.98;;;12.02;;
3941;SDS011;1985;48.592;8.850;2023-04-19T04:40:21;23.87;;;11.20;;
3941;SDS011;1985;48.592;8.850;2023-04-19T04:42:47;26.10;;;11.70;;
3941;SDS011;1985;48.592;8.850;2023-04-19T04:45:13;28.52;;;12.15;;
3941;SDS011;1985;48.592;8.850;2023-04-19T04:47:42;24.33;;;11.30;;
3941;SDS011;1985;48.592;8.850;2023-04-19T04:50:10;24.98;;;11.68;;
3941;SDS011;1985;48.592;8.850;2023-04-19T04:52:35;28.17;;;11.38;;
3941;SDS011;1985;48.592;8.850;2023-04-19T04:55:01;24.70;;;11.27;;
3941;SDS011;1985;48.592;8.850;2023-04-19T04:57:26;24.27;;;10.00;;
3941;SDS011;1985;48.592;8.850;2023-04-19T04:59:52;23.60;;;11.65;;
3941;SDS011;1985;48.592;8.850;2023-04-19T05:02:20;26.80;;;11.37;;
3941;SDS011;1985;48.592;8.850;2023-04-19T05:04:46;25.87;;;12.40;;
3941;SDS011;1985;48.592;8.850;2023-04-19T05:07:12;25.13;;;11.80;;
3941;SDS011;1985;48.592;8.850;2023-04-19T05:09:37;24.97;;;11.17;;
3941;SDS011;1985;48.592;8.850;2023-04-19T05:12:03;25.90;;;12.05;;
3941;SDS011;1985;48.592;8.850;2023-04-19T05:14:29;24.30;;;11.63;;
3941;SDS011;1985;48.592;8.850;2023-04-19T05:16:54;24.30;;;11.52;;
3941;SDS011;1985;48.592;8.850;2023-04-19T05:19:20;22.73;;;11.17;;
3941;SDS011;1985;48.592;8.850;2023-04-19T05:21:46;24.85;;;11.43;;
3941;SDS011;1985;48.592;8.850;2023-04-19T05:24:12;27.40;;;12.70;;
3941;SDS011;1985;48.592;8.850;2023-04-19T05:26:37;25.93;;;12.60;;
3941;SDS011;1985;48.592;8.850;2023-04-19T05:29:03;26.45;;;12.68;;
3941;SDS011;1985;48.592;8.850;2023-04-19T05:31:29;25.73;;;13.00;;
3941;SDS011;1985;48.592;8.850;2023-04-19T05:33:54;25.00;;;12.23;;
3941;SDS011;1985;48.592;8.850;2023-04-19T05:36:20;30.87;;;12.70;;
3941;SDS011;1985;48.592;8.850;2023-04-19T05:38:45;29.10;;;12.77;;
3941;SDS011;1985;48.592;8.850;2023-04-19T05:41:11;25.30;;;12.00;;
3941;SDS011;1985;48.592;8.850;2023-04-19T05:43:36;25.33;;;12.10;;
3941;SDS011;1985;48.592;8.850;2023-04-19T05:46:02;23.52;;;12.20;;
3941;SDS011;1985;48.592;8.850;2023-04-19T05:48:28;25.27;;;11.97;;
3941;SDS011;1985;48.592;8.850;2023-04-19T05:50:54;24.42;;;12.40;;
3941;SDS011;1985;48.592;8.850;2023-04-19T05:53:21;27.42;;;12.25;;
3941;SDS011;1985;48.592;8.850;2023-04-19T05:55:47;25.30;;;12.00;;
3941;SDS011;1985;48.592;8.850;2023-04-19T05:58:14;25.58;;;12.18;;
3941;SDS011;1985;48.592;8.850;2023-04-19T06:00:40;28.52;;;13.57;;
3941;SDS011;1985;48.592;8.850;2023-04-19T06:03:06;26.42;;;13.32;;
3941;SDS011;1985;48.592;8.850;2023-04-19T06:05:32;25.83;;;11.47;;
3941;SDS011;1985;48.592;8.850;2023-04-19T06:07:58;27.10;;;12.57;;
3941;SDS011;1985;48.592;8.850;2023-04-19T06:10:24;26.03;;;13.07;;
3941;SDS011;1985;48.592;8.850;2023-04-19T06:12:49;27.15;;;13.20;;
3941;SDS011;1985;48.592;8.850;2023-04-19T06:15:15;27.10;;;12.80;;
3941;SDS011;1985;48.592;8.850;2023-04-19T06:17:41;28.00;;;13.27;;
3941;SDS011;1985;48.592;8.850;2023-04-19T06:20:07;25.48;;;12.93;;
3941;SDS011;1985;48.592;8.850;2023-04-19T06:22:34;29.25;;;12.68;;
3941;SDS011;1985;48.592;8.850;2023-04-19T06:25:05;26.63;;;12.43;;
3941;SDS011;1985;48.592;8.850;2023-04-19T06:27:31;28.30;;;12.87;;
3941;SDS011;1985;48.592;8.850;2023-04-19T06:29:56;26.85;;;13.35;;
3941;SDS011;1985;48.592;8.850;2023-04-19T06:32:24;26.80;;;11.95;;
3941;SDS011;1985;48.592;8.850;2023-04-19T06:34:50;27.98;;;13.18;;
3941;SDS011;1985;48.592;8.850;2023-04-19T06:37:16;26.65;;;11.55;;
3941;SDS011;1985;48.592;8.850;2023-04-19T06:39:41;25.07;;;12.50;;
3941;SDS011;1985;48.592;8.850;2023-04-19T06:42:07;25.83;;;12.32;;
3941;SDS011;1985;48.592;8.850;2023-04-19T06:44:33;25.77;;;11.20;;
3941;SDS011;1985;48.592;8.850;2023-04-19T06:46:58;28.58;;;12.82;;
3941;SDS011;1985;48.592;8.850;2023-04-19T06:49:24;23.10;;;10.80;;
3941;SDS011;1985;48.592;8.850;2023-04-19T06:51:50;26.15;;;12.45;;
3941;SDS011;1985;48.592;8.850;2023-04-19T06:54:15;26.67;;;10.43;;
3941;SDS011;1985;48.592;8.850;2023-04-19T06:56:42;23.40;;;11.95;;
3941;SDS011;1985;48.592;8.850;2023-04-19T06:59:12;28.00;;;13.20;;
3941;SDS011;1985;48.592;8.850;2023-04-19T07:01:43;25.80;;;11.82;;
3941;SDS011;1985;48.592;8.850;2023-04-19T07:04:09;23.65;;;11.88;;
3941;SDS011;1985;48.592;8.850;2023-04-19T07:06:36;24.05;;;11.32;;
3941;SDS011;1985;48.592;8.850;2023-04-19T07:09:02;26.97;;;12.03;;
3941;SDS011;1985;48.592;8.850;2023-04-19T07:11:28;26.38;;;12.10;;
3941;SDS011;1985;48.592;8.850;2023-04-19T07:13:54;24.45;;;11.80;;
3941;SDS011;1985;48.592;8.850;2023-04-19T07:16:20;24.53;;;11.80;;
3941;SDS011;1985;48.592;8.850;2023-04-19T07:18:46;24.20;;;12.27;;
3941;SDS011;1985;48.592;8.850;2023-04-19T07:21:11;23.37;;;11.93;;
3941;SDS011;1985;48.592;8.850;2023-04-19T07:23:37;23.77;;;11.50;;
3941;SDS011;1985;48.592;8.850;2023-04-19T07:26:03;21.90;;;11.33;;
3941;SDS011;1985;48.592;8.850;2023-04-19T07:28:28;22.50;;;11.18;;
3941;SDS011;1985;48.592;8.850;2023-04-19T07:30:54;25.55;;;11.45;;
3941;SDS011;1985;48.592;8.850;2023-04-19T07:33:21;25.30;;;11.70;;
3941;SDS011;1985;48.592;8.850;2023-04-19T07:35:48;23.10;;;11.23;;
3941;SDS011;1985;48.592;8.850;2023-04-19T07:38:15;22.00;;;10.60;;
3941;SDS011;1985;48.592;8.850;2023-04-19T07:40:41;27.80;;;11.18;;
3941;SDS011;1985;48.592;8.850;2023-04-19T07:43:07;25.20;;;11.80;;
3941;SDS011;1985;48.592;8.850;2023-04-19T07:45:32;23.00;;;10.50;;
3941;SDS011;1985;48.592;8.850;2023-04-19T07:47:59;21.60;;;11.27;;
3941;SDS011;1985;48.592;8.850;2023-04-19T07:50:25;22.05;;;11.00;;
3941;SDS011;1985;48.592;8.850;2023-04-19T07:52:51;24.27;;;11.03;;
3941;SDS011;1985;48.592;8.850;2023-04-19T07:55:17;25.65;;;11.30;;
3941;SDS011;1985;48.592;8.850;2023-04-19T07:57:43;21.40;;;10.75;;
3941;SDS011;1985;48.592;8.850;2023-04-19T08:00:12;24.83;;;11.88;;
3941;SDS011;1985;48.592;8.850;2023-04-19T08:02:41;21.03;;;10.53;;
3941;SDS011;1985;48.592;8.850;2023-04-19T08:05:10;20.73;;;10.52;;
3941;SDS011;1985;48.592;8.850;2023-04-19T08:07:36;20.73;;;9.90;;
3941;SDS011;1985;48.592;8.850;2023-04-19T08:10:03;21.50;;;10.07;;
3941;SDS011;1985;48.592;8.850;2023-04-19T08:12:30;23.15;;;10.73;;
3941;SDS011;1985;48.592;8.850;2023-04-19T08:14:56;20.23;;;9.20;;
3941;SDS011;1985;48.592;8.850;2023-04-19T08:17:21;21.17;;;9.60;;
3941;SDS011;1985;48.592;8.850;2023-04-19T08:19:48;19.60;;;9.10;;
3941;SDS011;1985;48.592;8.850;2023-04-19T08:22:14;21.30;;;9.70;;
3941;SDS011;1985;48.592;8.850;2023-04-19T08:24:41;18.98;;;9.43;;
3941;SDS011;1985;48.592;8.850;2023-04-19T08:27:07;17.20;;;7.53;;
3941;SDS011;1985;48.592;8.850;2023-04-19T08:29:33;23.00;;;9.55;;
3941;SDS011;1985;48.592;8.850;2023-04-19T08:31:59;17.73;;;8.32;;
3941;SDS011;1985;48.592;8.850;2023-04-19T08:34:26;19.93;;;8.60;;
3941;SDS011;1985;48.592;8.850;2023-04-19T08:36:52;20.80;;;9.15;;
3941;SDS011;1985;48.592;8.850;2023-04-19T08:39:17;18.45;;;8.27;;
3941;SDS011;1985;48.592;8.850;2023-04-19T08:41:43;18.77;;;7.93;;
3941;SDS011;1985;48.592;8.850;2023-04-19T08:44:11;18.77;;;8.75;;
3941;SDS011;1985;48.592;8.850;2023-04-19T08:46:38;18.58;;;8.77;;
3941;SDS011;1985;48.592;8.850;2023-04-19T08:49:06;19.02;;;8.00;;
3941;SDS011;1985;48.592;8.850;2023-04-19T08:51:33;18.05;;;7.50;;
3941;SDS011;1985;48.592;8.850;2023-04-19T08:53:59;17.38;;;7.90;;
3941;SDS011;1985;48.592;8.850;2023-04-19T08:56:27;17.48;;;8.10;;
3941;SDS011;1985;48.592;8.850;2023-04-19T08:58:54;18.77;;;9.00;;
3941;SDS011;1985;48.592;8.850;2023-04-19T09:01:20;19.37;;;8.10;;
3941;SDS011;1985;48.592;8.850;2023-04-19T09:03:46;17.23;;;7.88;;
3941;SDS011;1985;48.592;8.850;2023-04-19T09:06:11;20.30;;;8.93;;
3941;SDS011;1985;48.592;8.850;2023-04-19T09:08:38;22.25;;;9.15;;
3941;SDS011;1985;48.592;8.850;2023-04-19T09:11:04;19.73;;;8.57;;
3941;SDS011;1985;48.592;8.850;2023-04-19T09:13:30;22.35;;;8.93;;
3941;SDS011;1985;48.592;8.850;2023-04-19T09:15:56;19.23;;;8.65;;
3941;SDS011;1985;48.592;8.850;2023-04-19T09:18:24;19.63;;;8.93;;
3941;SDS011;1985;48.592;8.850;2023-04-19T09:20:50;20.77;;;9.50;;
3941;SDS011;1985;48.592;8.850;2023-04-19T09:23:26;20.05;;;8.95;;
3941;SDS011;1985;48.592;8.850;2023-04-19T09:25:56;20.45;;;8.90;;
3941;SDS011;1985;48.592;8.850;2023-04-19T09:28:26;22.08;;;9.82;;
3941;SDS011;1985;48.592;8.850;2023-04-19T09:30:53;20.83;;;8.98;;
3941;SDS011;1985;48.592;8.850;2023-04-19T09:33:35;18.45;;;9.70;;
3941;SDS011;1985;48.592;8.850;2023-04-19T09:36:03;21.70;;;8.45;;
3941;SDS011;1985;48.592;8.850;2023-04-19T09:38:32;20.83;;;9.00;;
3941;SDS011;1985;48.592;8.850;2023-04-19T09:41:12;20.30;;;8.50;;
3941;SDS011;1985;48.592;8.850;2023-04-19T09:43:37;20.03;;;9.20;;
3941;SDS011;1985;48.592;8.850;2023-04-19T09:46:03;20.47;;;8.43;;
3941;SDS011;1985;48.592;8.850;2023-04-19T09:48:28;16.13;;;7.43;;
3941;SDS011;1985;48.592;8.850;2023-04-19T09:50:55;18.30;;;8.27;;
3941;SDS011;1985;48.592;8.850;2023-04-19T09:53:22;17.02;;;7.15;;
3941;SDS011;1985;48.592;8.850;2023-04-19T09:55:49;17.67;;;7.80;;
3941;SDS011;1985;48.592;8.850;2023-04-19T09:58:15;16.75;;;7.00;;
3941;SDS011;1985;48.592;8.850;2023-04-19T10:00:43;21.30;;;8.13;;
3941;SDS011;1985;48.592;8.850;2023-04-19T10:03:11;17.30;;;8.02;;
3941;SDS011;1985;48.592;8.850;2023-04-19T10:05:41;16.63;;;7.30;;
3941;SDS011;1985;48.592;8.850;2023-04-19T10:08:08;20.05;;;8.00;;
3941;SDS011;1985;48.592;8.850;2023-04-19T10:10:35;20.53;;;7.30;;
3941;SDS011;1985;48.592;8.850;2023-04-19T10:13:02;16.38;;;6.80;;
3941;SDS011;1985;48.592;8.850;2023-04-19T10:15:29;19.10;;;6.55;;
3941;SDS011;1985;48.592;8.850;2023-04-19T10:17:56;19.70;;;7.10;;
3941;SDS011;1985;48.592;8.850;2023-04-19T10:20:23;19.30;;;6.37;;
3941;SDS011;1985;48.592;8.850;2023-04-19T10:23:08;15.45;;;6.50;;
3941;SDS011;1985;48.592;8.850;2023-04-19T10:25:36;16.70;;;6.03;;
3941;SDS011;1985;48.592;8.850;2023-04-19T10:28:02;16.27;;;6.28;;
3941;SDS011;1985;48.592;8.850;2023-04-19T10:30:28;16.40;;;6.85;;
3941;SDS011;1985;48.592;8.850;2023-04-19T10:32:55;14.90;;;6.20;;
3941;SDS011;1985;48.592;8.850;2023-04-19T10:35:24;14.95;;;6.15;;
3941;SDS011;1985;48.592;8.850;2023-04-19T10:43:23;15.65;;;6.18;;
3941;SDS011;1985;48.592;8.850;2023-04-19T10:45:58;15.20;;;6.43;;
3941;SDS011;1985;48.592;8.850;2023-04-19T10:50:58;18.13;;;6.03;;
3941;SDS011;1985;48.592;8.850;2023-04-19T10:56:11;14.93;;;6.60;;
3941;SDS011;1985;48.592;8.850;2023-04-19T11:01:47;15.40;;;6.97;;
3941;SDS011;1985;48.592;8.850;2023-04-19T11:07:04;15.82;;;6.88;;
3941;SDS011;1985;48.592;8.850;2023-04-19T11:09:35;16.15;;;7.00;;
3941;SDS011;1985;48.592;8.850;2023-04-19T11:14:29;17.08;;;7.10;;
3941;SDS011;1985;48.592;8.850;2023-04-19T11:16:58;18.13;;;7.63;;
3941;SDS011;1985;48.592;8.850;2023-04-19T11:19:24;17.67;;;7.53;;
3941;SDS011;1985;48.592;8.850;2023-04-19T11:21:50;20.25;;;7.93;;
3941;SDS011;1985;48.592;8.850;2023-04-19T11:24:15;16.95;;;7.38;;
3941;SDS011;1985;48.592;8.850;2023-04-19T11:26:43;16.40;;;7.22;;
3941;SDS011;1985;48.592;8.850;2023-04-19T11:29:10;15.90;;;7.50;;
3941;SDS011;1985;48.592;8.850;2023-04-19T11:31:36;15.60;;;6.80;;
3941;SDS011;1985;48.592;8.850;2023-04-19T11:34:02;15.73;;;6.70;;
3941;SDS011;1985;48.592;8.850;2023-04-19T11:36:29;18.08;;;6.95;;
3941;SDS011;1985;48.592;8.850;2023-04-19T11:39:00;17.15;;;7.20;;
3941;SDS011;1985;48.592;8.850;2023-04-19T11:41:29;17.75;;;7.50;;
3941;SDS011;1985;48.592;8.850;2023-04-19T11:44:00;15.88;;;7.13;;
3941;SDS011;1985;48.592;8.850;2023-04-19T11:46:26;16.73;;;7.73;;
3941;SDS011;1985;48.592;8.850;2023-04-19T11:48:52;16.80;;;6.97;;
3941;SDS011;1985;48.592;8.850;2023-04-19T11:51:18;15.85;;;6.72;;
3941;SDS011;1985;48.592;8.850;2023-04-19T11:53:44;17.00;;;6.70;;
3941;SDS011;1985;48.592;8.850;2023-04-19T11:56:10;18.40;;;6.93;;
3941;SDS011;1985;48.592;8.850;2023-04-19T11:58:45;18.90;;;6.18;;
3941;SDS011;1985;48.592;8.850;2023-04-19T12:01:19;15.30;;;6.53;;
3941;SDS011;1985;48.592;8.850;2023-04-19T12:06:13;18.85;;;7.75;;
3941;SDS011;1985;48.592;8.850;2023-04-19T12:08:42;18.45;;;7.32;;
3941;SDS011;1985;48.592;8.850;2023-04-19T12:11:11;19.48;;;7.70;;
3941;SDS011;1985;48.592;8.850;2023-04-19T12:13:37;17.52;;;7.47;;
3941;SDS011;1985;48.592;8.850;2023-04-19T12:16:05;18.23;;;8.20;;
3941;SDS011;1985;48.592;8.850;2023-04-19T12:18:46;17.23;;;6.93;;
3941;SDS011;1985;48.592;8.850;2023-04-19T12:21:23;19.77;;;8.05;;
3941;SDS011;1985;48.592;8.850;2023-04-19T12:23:52;16.95;;;7.43;;
3941;SDS011;1985;48.592;8.850;2023-04-19T12:26:19;17.00;;;7.05;;
3941;SDS011;1985;48.592;8.850;2023-04-19T12:28:45;16.08;;;7.00;;
3941;SDS011;1985;48.592;8.850;2023-04-19T12:31:11;21.80;;;7.40;;
3941;SDS011;1985;48.592;8.850;2023-04-19T12:33:36;16.43;;;6.67;;
3941;SDS011;1985;48.592;8.850;2023-04-19T12:36:02;17.40;;;7.53;;
3941;SDS011;1985;48.592;8.850;2023-04-19T12:38:27;15.95;;;7.60;;
3941;SDS011;1985;48.592;8.850;2023-04-19T12:40:53;17.97;;;7.77;;
3941;SDS011;1985;48.592;8.850;2023-04-19T12:43:19;19.98;;;7.70;;
3941;SDS011;1985;48.592;8.850;2023-04-19T12:45:45;22.97;;;11.03;;
3941;SDS011;1985;48.592;8.850;2023-04-19T12:48:10;20.35;;;9.02;;
3941;SDS011;1985;48.592;8.850;2023-04-19T12:50:36;20.20;;;9.15;;
3941;SDS011;1985;48.592;8.850;2023-04-19T12:53:02;22.00;;;10.30;;
3941;SDS011;1985;48.592;8.850;2023-04-19T12:55:28;21.05;;;9.40;;
3941;SDS011;1985;48.592;8.850;2023-04-19T12:57:53;26.03;;;10.13;;
3941;SDS011;1985;48.592;8.850;2023-04-19T13:00:19;21.60;;;8.97;;
3941;SDS011;1985;48.592;8.850;2023-04-19T13:02:45;20.60;;;8.95;;
3941;SDS011;1985;48.592;8.850;2023-04-19T13:05:12;21.67;;;9.45;;
3941;SDS011;1985;48.592;8.850;2023-04-19T13:07:37;23.27;;;11.23;;
3941;SDS011;1985;48.592;8.850;2023-04-19T13:10:03;22.00;;;10.10;;
3941;SDS011;1985;48.592;8.850;2023-04-19T13:12:30;20.98;;;9.73;;
3941;SDS011;1985;48.592;8.850;2023-04-19T13:14:55;20.58;;;9.60;;
3941;SDS011;1985;48.592;8.850;2023-04-19T13:17:21;21.23;;;10.27;;
3941;SDS011;1985;48.592;8.850;2023-04-19T13:19:47;21.40;;;9.80;;
3941;SDS011;1985;48.592;8.850;2023-04-19T13:22:13;20.70;;;9.95;;
3941;SDS011;1985;48.592;8.850;2023-04-19T13:24:39;19.25;;;8.35;;
3941;SDS011;1985;48.592;8.850;2023-04-19T13:27:05;18.67;;;7.53;;
3941;SDS011;1985;48.592;8.850;2023-04-19T13:29:30;17.65;;;7.45;;
3941;SDS011;1985;48.592;8.850;2023-04-19T13:31:56;22.63;;;9.20;;
3941;SDS011;1985;48.592;8.850;2023-04-19T13:34:22;16.45;;;6.90;;
3941;SDS011;1985;48.592;8.850;2023-04-19T13:36:47;18.20;;;7.87;;
3941;SDS011;1985;48.592;8.850;2023-04-19T13:39:13;17.50;;;7.78;;
3941;SDS011;1985;48.592;8.850;2023-04-19T13:41:39;18.67;;;8.45;;
3941;SDS011;1985;48.592;8.850;2023-04-19T13:44:05;18.15;;;8.13;;
3941;SDS011;1985;48.592;8.850;2023-04-19T13:46:30;18.53;;;8.97;;
3941;SDS011;1985;48.592;8.850;2023-04-19T13:48:56;22.48;;;11.05;;
3941;SDS011;1985;48.592;8.850;2023-04-19T13:51:22;23.43;;;11.70;;
3941;SDS011;1985;48.592;8.850;2023-04-19T13:53:48;27.83;;;13.63;;
3941;SDS011;1985;48.592;8.850;2023-04-19T13:56:13;27.20;;;12.90;;
3941;SDS011;1985;48.592;8.850;2023-04-19T13:58:39;27.20;;;13.45;;
3941;SDS011;1985;48.592;8.850;2023-04-19T14:01:05;32.53;;;13.57;;
3941;SDS011;1985;48.592;8.850;2023-04-19T14:03:30;26.90;;;13.50;;
3941;SDS011;1985;48.592;8.850;2023-04-19T14:05:56;29.20;;;13.70;;
3941;SDS011;1985;48.592;8.850;2023-04-19T14:08:22;33.05;;;13.15;;
3941;SDS011;1985;48.592;8.850;2023-04-19T14:10:51;25.60;;;12.40;;
3941;SDS011;1985;48.592;8.850;2023-04-19T14:13:16;27.88;;;13.05;;
3941;SDS011;1985;48.592;8.850;2023-04-19T14:15:42;27.15;;;13.95;;
3941;SDS011;1985;48.592;8.850;2023-04-19T14:18:07;30.70;;;13.10;;
3941;SDS011;1985;48.592;8.850;2023-04-19T14:20:33;29.13;;;13.20;;
3941;SDS011;1985;48.592;8.850;2023-04-19T14:22:59;29.17;;;13.83;;
3941;SDS011;1985;48.592;8.850;2023-04-19T14:25:25;29.63;;;13.88;;
3941;SDS011;1985;48.592;8.850;2023-04-19T14:27:51;27.73;;;13.23;;
3941;SDS011;1985;48.592;8.850;2023-04-19T14:30:16;32.60;;;13.27;;
3941;SDS011;1985;48.592;8.850;2023-04-19T14:32:42;25.45;;;12.18;;
3941;SDS011;1985;48.592;8.850;2023-04-19T14:35:08;28.70;;;12.68;;
3941;SDS011;1985;48.592;8.850;2023-04-19T14:37:35;30.02;;;12.38;;
3941;SDS011;1985;48.592;8.850;2023-04-19T14:40:01;29.00;;;12.43;;
3941;SDS011;1985;48.592;8.850;2023-04-19T14:42:27;29.53;;;13.83;;
3941;SDS011;1985;48.592;8.850;2023-04-19T14:44:53;26.45;;;12.18;;
3941;SDS011;1985;48.592;8.850;2023-04-19T14:47:19;34.90;;;13.37;;
3941;SDS011;1985;48.592;8.850;2023-04-19T14:49:45;33.53;;;13.18;;
3941;SDS011;1985;48.592;8.850;2023-04-19T14:52:10;26.73;;;12.77;;
3941;SDS011;1985;48.592;8.850;2023-04-19T14:54:36;26.43;;;12.40;;
3941;SDS011;1985;48.592;8.850;2023-04-19T14:57:02;29.95;;;13.45;;
3941;SDS011;1985;48.592;8.850;2023-04-19T14:59:28;29.37;;;13.80;;
3941;SDS011;1985;48.592;8.850;2023-04-19T15:01:53;30.00;;;13.40;;
3941;SDS011;1985;48.592;8.850;2023-04-19T15:04:19;29.17;;;13.73;;
3941;SDS011;1985;48.592;8.850;2023-04-19T15:06:45;30.75;;;14.50;;
3941;SDS011;1985;48.592;8.850;2023-04-19T15:09:10;28.53;;;13.20;;
3941;SDS011;1985;48.592;8.850;2023-04-19T15:11:36;28.25;;;14.73;;